Time;durP1;ratioP1;P1;durP2;ratioP2;P2;SDS_P1;SDS_P2;PMS_P1;PMS_P2;Temp;Humidity;BMP_temperature;BMP_pressure;BME280_temperature;BME280_humidity;BME280_pressure;Samples;Min_cycle;Max_cycle;Signal;HPM_P1;HPM_P2
2024/02/23 00:02:18;;;;;;;1.40;0.20;;;4.30;99.90;;;;;;4962461;28;20031;-91
2024/02/23 00:04:44;;;;;;;4.57;0.45;;;4.30;99.90;;;;;;4959874;28;20026;-91
2024/02/23 00:07:10;;;;;;;2.90;0.20;;;4.30;99.90;;;;;;4962113;28;20039;-90
2024/02/23 00:09:36;;;;;;;0.32;0.30;;;4.40;99.90;;;;;;4956134;28;20109;-91
2024/02/23 00:12:02;;;;;;;3.03;0.32;;;4.40;99.90;;;;;;4955093;28;20043;-92
2024/02/23 00:14:30;;;;;;;3.50;0.40;;;4.40;99.90;;;;;;4961810;28;20169;-92
2024/02/23 00:16:57;;;;;;;2.25;0.20;;;4.40;99.90;;;;;;4961404;28;20041;-92
2024/02/23 00:19:23;;;;;;;2.40;0.30;;;4.40;99.90;;;;;;4960127;28;20081;-91
2024/02/23 00:21:50;;;;;;;5.15;0.30;;;4.40;99.90;;;;;;4960218;28;20026;-90
2024/02/23 00:24:16;;;;;;;3.72;0.40;;;4.40;99.90;;;;;;4959864;28;20030;-91
2024/02/23 00:26:43;;;;;;;2.65;0.50;;;4.40;99.90;;;;;;4962718;28;20034;-92
2024/02/23 00:29:09;;;;;;;2.95;0.70;;;4.40;99.90;;;;;;4958110;28;20106;-90
2024/02/23 00:31:37;;;;;;;2.83;0.93;;;4.40;99.90;;;;;;4962751;28;20050;-90
2024/02/23 00:34:02;;;;;;;3.95;0.80;;;4.40;99.90;;;;;;4968019;28;20054;-89
2024/02/23 00:36:28;;;;;;;7.32;1.33;;;4.40;99.90;;;;;;4975058;28;20080;-89
2024/02/23 00:38:53;;;;;;;7.20;1.63;;;4.40;99.90;;;;;;4972297;28;20118;-89
2024/02/23 00:41:19;;;;;;;5.47;1.55;;;4.40;99.90;;;;;;4976629;28;20073;-89
2024/02/23 00:43:45;;;;;;;4.50;1.23;;;4.40;99.90;;;;;;4975799;28;20030;-88
2024/02/23 00:46:11;;;;;;;5.65;1.85;;;4.40;99.90;;;;;;4974376;28;20439;-88
2024/02/23 00:48:36;;;;;;;9.32;2.20;;;4.40;99.90;;;;;;4975189;28;20037;-89
2024/02/23 00:51:02;;;;;;;6.05;2.17;;;4.30;99.90;;;;;;4966218;28;20030;-87
2024/02/23 00:53:30;;;;;;;6.38;2.55;;;4.30;99.90;;;;;;4961627;28;21099;-90
2024/02/23 00:55:55;;;;;;;10.02;3.28;;;4.30;99.90;;;;;;4962914;28;20031;-89
2024/02/23 00:58:21;;;;;;;5.93;2.72;;;4.30;99.90;;;;;;4966726;28;20035;-89
2024/02/23 01:00:47;;;;;;;9.07;2.58;;;4.30;99.90;;;;;;4960907;28;20620;-89
2024/02/23 01:03:12;;;;;;;6.95;3.05;;;4.30;99.90;;;;;;4959021;28;20077;-90
2024/02/23 01:05:39;;;;;;;5.47;2.15;;;4.30;99.90;;;;;;4960644;28;20038;-89
2024/02/23 01:08:05;;;;;;;9.55;2.85;;;4.40;99.90;;;;;;4956180;28;20069;-89
2024/02/23 01:10:31;;;;;;;7.65;2.42;;;4.40;99.90;;;;;;4955589;28;20049;-90
2024/02/23 01:12:57;;;;;;;9.10;2.83;;;4.40;99.90;;;;;;4964554;28;20121;-87
2024/02/23 01:15:22;;;;;;;5.50;1.85;;;4.40;99.90;;;;;;4958211;28;20031;-89
2024/02/23 01:17:48;;;;;;;6.25;1.60;;;4.40;99.90;;;;;;4961370;28;20105;-89
2024/02/23 01:20:14;;;;;;;6.70;2.15;;;4.40;99.90;;;;;;4956909;28;20027;-89
2024/02/23 01:22:39;;;;;;;4.57;1.60;;;4.50;99.90;;;;;;4960427;28;20185;-89
2024/02/23 01:25:06;;;;;;;4.18;1.15;;;4.40;99.90;;;;;;4959888;28;20078;-88
2024/02/23 01:27:31;;;;;;;6.43;1.38;;;4.40;99.90;;;;;;4960563;28;20031;-87
2024/02/23 01:29:57;;;;;;;9.90;0.98;;;4.40;99.90;;;;;;4958570;28;20026;-88
2024/02/23 01:32:22;;;;;;;6.00;0.93;;;4.40;99.90;;;;;;4961444;28;20061;-88
2024/02/23 01:34:48;;;;;;;5.03;0.80;;;4.40;99.90;;;;;;4957437;28;20030;-90
2024/02/23 01:37:14;;;;;;;3.83;0.68;;;4.40;99.90;;;;;;4963815;28;20034;-88
2024/02/23 01:39:40;;;;;;;7.60;1.23;;;4.40;99.90;;;;;;4960260;28;20080;-88
2024/02/23 01:42:05;;;;;;;6.00;0.65;;;4.40;99.90;;;;;;4957981;28;20034;-88
2024/02/23 01:44:31;;;;;;;3.80;0.75;;;4.40;99.90;;;;;;4957519;28;20133;-88
2024/02/23 01:46:57;;;;;;;3.83;0.40;;;4.40;99.90;;;;;;4955670;28;20102;-89
2024/02/23 01:49:29;;;;;;;4.35;0.60;;;4.40;99.90;;;;;;4974265;28;20097;-88
2024/02/23 01:51:58;;;;;;;4.85;0.40;;;4.40;99.90;;;;;;4956960;28;20046;-88
2024/02/23 01:54:24;;;;;;;6.55;0.88;;;4.40;99.90;;;;;;4959717;28;20031;-87
2024/02/23 01:56:51;;;;;;;3.28;0.40;;;4.40;99.90;;;;;;4963006;28;20059;-88
2024/02/23 01:59:17;;;;;;;5.63;0.40;;;4.40;99.90;;;;;;4963688;28;20069;-88
2024/02/23 02:01:44;;;;;;;5.63;0.40;;;4.40;99.90;;;;;;4959898;28;20430;-88
2024/02/23 02:04:10;;;;;;;5.90;0.38;;;4.40;99.90;;;;;;4944545;28;20050;-88
2024/02/23 02:06:36;;;;;;;5.63;0.50;;;4.40;99.90;;;;;;4956277;28;20050;-89
2024/02/23 02:09:02;;;;;;;6.28;1.45;;;4.40;99.90;;;;;;4963685;28;20027;-88
2024/02/23 02:11:28;;;;;;;4.95;0.50;;;4.40;99.90;;;;;;4954837;28;20074;-88
2024/02/23 02:13:53;;;;;;;3.35;0.32;;;4.40;99.90;;;;;;4957019;28;20518;-88
2024/02/23 02:16:19;;;;;;;3.40;0.40;;;4.40;99.90;;;;;;4957840;28;20384;-88
2024/02/23 02:18:45;;;;;;;3.92;0.32;;;4.40;99.90;;;;;;4971939;28;20026;-88
2024/02/23 02:21:11;;;;;;;7.57;0.35;;;4.50;99.90;;;;;;4963777;28;20038;-88
2024/02/23 02:23:37;;;;;;;6.13;0.22;;;4.50;99.90;;;;;;4968897;28;20045;-87
2024/02/23 02:26:03;;;;;;;2.92;0.25;;;4.50;99.90;;;;;;4959602;28;20026;-88
2024/02/23 02:28:29;;;;;;;4.78;0.50;;;4.50;99.90;;;;;;4966165;28;20034;-88
2024/02/23 02:30:55;;;;;;;2.22;0.30;;;4.50;99.90;;;;;;4961810;28;20093;-87
2024/02/23 02:33:22;;;;;;;9.18;0.60;;;4.50;99.90;;;;;;4962276;28;20031;-88
2024/02/23 02:35:48;;;;;;;6.88;0.43;;;4.40;99.90;;;;;;4959865;28;20055;-87
2024/02/23 02:38:14;;;;;;;5.72;0.35;;;4.40;99.90;;;;;;4958104;28;20593;-87
2024/02/23 02:40:39;;;;;;;4.35;0.40;;;4.40;99.90;;;;;;4973621;28;20027;-88
2024/02/23 02:43:06;;;;;;;5.18;0.40;;;4.40;99.90;;;;;;4962151;28;20462;-88
2024/02/23 02:45:32;;;;;;;5.78;0.45;;;4.40;99.90;;;;;;4975906;28;20026;-88
2024/02/23 02:47:59;;;;;;;7.10;0.95;;;4.40;99.90;;;;;;4975415;28;20030;-88
2024/02/23 02:50:25;;;;;;;10.73;0.80;;;4.40;99.90;;;;;;4974912;28;20038;-88
2024/02/23 02:52:51;;;;;;;3.67;0.60;;;4.40;99.90;;;;;;4977922;28;20498;-88
2024/02/23 02:55:16;;;;;;;9.98;0.80;;;4.50;99.90;;;;;;4959465;28;20074;-87
2024/02/23 02:57:44;;;;;;;4.85;0.50;;;4.50;99.90;;;;;;4974711;28;20058;-88
2024/02/23 03:00:11;;;;;;;6.03;0.80;;;4.40;99.90;;;;;;4961305;28;20795;-89
2024/02/23 03:02:36;;;;;;;8.20;0.85;;;4.40;99.90;;;;;;4963855;28;20044;-88
2024/02/23 03:05:02;;;;;;;6.47;0.40;;;4.40;99.90;;;;;;4962688;28;20026;-88
2024/02/23 03:07:27;;;;;;;7.45;0.40;;;4.50;99.90;;;;;;4962673;28;20038;-88
2024/02/23 03:09:54;;;;;;;5.18;0.40;;;4.40;99.90;;;;;;4959946;28;20129;-87
2024/02/23 03:12:19;;;;;;;4.15;0.57;;;4.40;99.90;;;;;;4974383;28;20039;-87
2024/02/23 03:14:45;;;;;;;2.85;0.32;;;4.40;99.90;;;;;;4973108;28;20054;-87
2024/02/23 03:17:10;;;;;;;2.38;0.60;;;4.40;99.90;;;;;;4974198;28;20038;-88
2024/02/23 03:19:37;;;;;;;3.85;0.30;;;4.40;99.90;;;;;;4975488;28;20026;-87
2024/02/23 03:22:02;;;;;;;1.77;0.30;;;4.40;99.90;;;;;;4961552;28;20030;-88
2024/02/23 03:24:28;;;;;;;4.13;0.50;;;4.40;99.90;;;;;;4973156;28;20521;-87
2024/02/23 03:26:54;;;;;;;2.15;0.40;;;4.40;99.90;;;;;;4981514;28;20049;-87
2024/02/23 03:29:20;;;;;;;8.93;0.88;;;4.40;99.90;;;;;;4978737;28;20030;-87
2024/02/23 03:31:45;;;;;;;5.03;0.60;;;4.40;99.90;;;;;;4967740;28;20046;-87
2024/02/23 03:34:13;;;;;;;5.30;0.40;;;4.40;99.90;;;;;;4974289;28;20030;-87
2024/02/23 03:36:38;;;;;;;7.38;0.45;;;4.40;99.90;;;;;;4971516;28;20462;-87
2024/02/23 03:39:04;;;;;;;2.97;0.50;;;4.40;99.90;;;;;;4974396;28;20057;-87
2024/02/23 03:41:29;;;;;;;6.35;0.50;;;4.40;99.90;;;;;;4975149;28;20376;-87
2024/02/23 03:43:55;;;;;;;7.95;0.50;;;4.40;99.90;;;;;;4975360;28;20022;-87
2024/02/23 03:46:21;;;;;;;6.50;0.82;;;4.40;99.90;;;;;;4973668;28;20033;-88
2024/02/23 03:48:47;;;;;;;5.95;0.40;;;4.40;99.90;;;;;;4994290;28;20518;-87
2024/02/23 03:51:13;;;;;;;6.80;0.88;;;4.40;99.90;;;;;;4970270;28;20076;-87
2024/02/23 03:53:38;;;;;;;5.28;0.40;;;4.40;99.90;;;;;;4961157;28;20050;-87
2024/02/23 03:56:04;;;;;;;5.30;0.40;;;4.40;99.90;;;;;;4959087;28;20540;-87
2024/02/23 03:58:29;;;;;;;3.05;0.40;;;4.40;99.90;;;;;;4959783;28;20531;-88
2024/02/23 04:00:55;;;;;;;5.65;0.40;;;4.40;99.90;;;;;;4975878;28;20033;-88
2024/02/23 04:03:21;;;;;;;2.50;0.40;;;4.40;99.90;;;;;;4956335;28;20035;-87
2024/02/23 04:05:46;;;;;;;2.60;0.30;;;4.30;99.90;;;;;;4986565;28;20015;-87
2024/02/23 04:08:12;;;;;;;3.30;0.45;;;4.30;99.90;;;;;;4980421;28;20081;-87
2024/02/23 04:10:38;;;;;;;8.50;1.02;;;4.40;99.90;;;;;;4991367;28;20030;-87
2024/02/23 04:13:03;;;;;;;3.35;0.50;;;4.40;99.90;;;;;;4993084;28;20042;-87
2024/02/23 04:15:29;;;;;;;4.88;0.38;;;4.40;99.90;;;;;;4997543;28;20030;-87
2024/02/23 04:17:55;;;;;;;5.63;1.25;;;4.40;99.90;;;;;;4992843;28;20450;-87
2024/02/23 04:20:20;;;;;;;4.55;0.57;;;4.40;99.90;;;;;;4974966;28;20030;-87
2024/02/23 04:22:46;;;;;;;4.68;0.40;;;4.40;99.90;;;;;;4976862;28;20073;-87
2024/02/23 04:25:12;;;;;;;5.25;0.45;;;4.40;99.90;;;;;;4973955;28;20033;-87
2024/02/23 04:27:37;;;;;;;4.78;0.40;;;4.40;99.90;;;;;;4993155;28;20030;-87
2024/02/23 04:30:04;;;;;;;6.95;0.40;;;4.40;99.90;;;;;;4977435;28;20030;-87
2024/02/23 04:32:30;;;;;;;9.13;0.70;;;4.40;99.90;;;;;;4975790;28;20495;-88
2024/02/23 04:34:55;;;;;;;8.25;0.63;;;4.40;99.90;;;;;;4975928;28;20172;-86
2024/02/23 04:37:21;;;;;;;4.43;0.50;;;4.40;99.90;;;;;;4971443;28;20034;-86
2024/02/23 04:39:47;;;;;;;6.65;0.60;;;4.40;99.90;;;;;;4961325;28;20019;-87
2024/02/23 04:42:12;;;;;;;2.88;0.40;;;4.40;99.90;;;;;;4975542;28;20040;-87
2024/02/23 04:44:38;;;;;;;5.45;0.40;;;4.40;99.90;;;;;;4976256;28;20022;-87
2024/02/23 04:47:03;;;;;;;8.50;0.60;;;4.50;99.90;;;;;;4975690;28;20058;-87
2024/02/23 04:49:29;;;;;;;4.63;0.40;;;4.50;99.90;;;;;;4971794;28;20483;-87
2024/02/23 04:51:55;;;;;;;5.13;0.40;;;4.60;99.90;;;;;;4972602;28;20420;-86
2024/02/23 04:54:20;;;;;;;4.00;0.55;;;4.60;99.90;;;;;;4975349;28;20133;-87
2024/02/23 04:56:47;;;;;;;5.72;0.40;;;4.60;99.90;;;;;;4971148;28;20106;-87
2024/02/23 04:59:13;;;;;;;6.57;1.42;;;4.70;99.90;;;;;;4964381;28;20034;-87
2024/02/23 05:01:39;;;;;;;7.68;0.50;;;4.70;99.90;;;;;;4967009;28;20026;-87
2024/02/23 05:04:04;;;;;;;5.57;0.50;;;4.80;99.90;;;;;;4991465;28;20562;-88
2024/02/23 05:06:30;;;;;;;5.78;0.60;;;4.80;99.90;;;;;;4959766;28;20019;-86
2024/02/23 05:08:56;;;;;;;6.90;0.98;;;4.80;99.90;;;;;;4970702;28;20070;-87
2024/02/23 05:11:21;;;;;;;3.75;0.50;;;4.80;99.90;;;;;;4972060;28;20058;-86
2024/02/23 05:13:47;;;;;;;4.90;0.98;;;4.90;99.90;;;;;;4964308;28;20483;-87
2024/02/23 05:16:16;;;;;;;7.18;0.50;;;4.90;99.90;;;;;;4990155;28;20109;-87
2024/02/23 05:18:42;;;;;;;4.80;0.40;;;5.00;99.90;;;;;;4988837;28;20363;-86
2024/02/23 05:21:08;;;;;;;11.75;0.52;;;5.00;99.90;;;;;;4982670;28;20036;-87
2024/02/23 05:23:33;;;;;;;7.93;0.63;;;5.00;99.90;;;;;;4974902;28;20513;-87
2024/02/23 05:25:59;;;;;;;3.72;0.40;;;5.10;99.90;;;;;;4972372;28;20030;-86
2024/02/23 05:28:24;;;;;;;7.03;0.80;;;5.10;99.90;;;;;;4970470;28;20038;-86
2024/02/23 05:30:51;;;;;;;4.18;0.50;;;5.10;99.90;;;;;;4972882;28;20050;-86
2024/02/23 05:33:20;;;;;;;7.82;1.05;;;5.20;99.90;;;;;;4975228;28;20048;-86
2024/02/23 05:35:48;;;;;;;5.97;0.60;;;5.20;99.90;;;;;;4973530;28;20022;-87
2024/02/23 05:38:14;;;;;;;7.80;0.38;;;5.20;99.90;;;;;;4975324;28;20034;-87
2024/02/23 05:40:39;;;;;;;4.13;0.60;;;5.30;99.90;;;;;;4981095;28;20018;-87
2024/02/23 05:43:05;;;;;;;8.20;0.80;;;5.30;99.90;;;;;;4981953;28;20030;-86
2024/02/23 05:45:31;;;;;;;6.45;0.57;;;5.30;99.90;;;;;;4980660;28;20491;-86
2024/02/23 05:47:56;;;;;;;5.35;0.85;;;5.40;99.90;;;;;;4981421;28;20105;-87
2024/02/23 05:50:22;;;;;;;7.63;0.70;;;5.40;99.90;;;;;;4974977;28;20028;-85
2024/02/23 05:52:48;;;;;;;4.80;1.13;;;5.40;99.90;;;;;;4975022;28;20038;-87
2024/02/23 05:55:13;;;;;;;6.88;1.13;;;5.40;99.90;;;;;;4963359;28;20505;-87
2024/02/23 05:57:40;;;;;;;5.50;0.60;;;5.40;99.90;;;;;;4966726;28;20042;-86
2024/02/23 06:00:07;;;;;;;3.65;0.40;;;5.40;99.90;;;;;;4966924;28;20031;-87
2024/02/23 06:02:33;;;;;;;4.55;0.55;;;5.40;99.90;;;;;;4971610;28;20026;-87
2024/02/23 06:04:58;;;;;;;2.88;0.40;;;5.40;99.90;;;;;;4978786;28;20027;-87
2024/02/23 06:07:28;;;;;;;6.63;1.02;;;5.40;99.90;;;;;;4983604;28;20405;-87
2024/02/23 06:09:57;;;;;;;4.50;0.50;;;5.40;99.90;;;;;;5001136;28;20117;-87
2024/02/23 06:12:23;;;;;;;1.98;0.60;;;5.40;99.90;;;;;;4974396;28;20038;-86
2024/02/23 06:14:51;;;;;;;2.78;0.50;;;5.40;99.90;;;;;;4979256;28;20022;-87
2024/02/23 06:17:16;;;;;;;4.55;0.50;;;5.40;99.90;;;;;;4981735;28;20027;-87
2024/02/23 06:19:42;;;;;;;8.18;0.60;;;5.40;99.90;;;;;;4976913;28;20034;-87
2024/02/23 06:22:09;;;;;;;4.60;0.60;;;5.40;99.90;;;;;;4965294;28;20077;-86
2024/02/23 06:24:35;;;;;;;8.02;0.95;;;5.40;99.90;;;;;;4965043;28;20034;-87
2024/02/23 06:27:03;;;;;;;6.75;0.70;;;5.40;99.90;;;;;;4997883;28;20030;-86
2024/02/23 06:29:29;;;;;;;3.75;0.50;;;5.40;99.90;;;;;;4989286;28;20084;-86
2024/02/23 06:31:54;;;;;;;4.63;0.50;;;5.50;99.90;;;;;;4971447;28;20525;-87
2024/02/23 06:34:20;;;;;;;5.45;0.40;;;5.50;99.90;;;;;;4960690;28;20050;-86
2024/02/23 06:36:45;;;;;;;6.28;0.50;;;5.50;99.90;;;;;;4994215;28;20399;-87
2024/02/23 06:39:11;;;;;;;4.97;0.45;;;5.50;99.90;;;;;;4978744;28;20022;-87
2024/02/23 06:41:38;;;;;;;8.85;0.50;;;5.50;99.90;;;;;;4978605;28;20471;-87
2024/02/23 06:44:04;;;;;;;5.55;0.50;;;5.60;99.90;;;;;;4975093;28;20022;-86
2024/02/23 06:46:30;;;;;;;7.07;0.77;;;5.60;99.90;;;;;;4995856;28;20034;-86
2024/02/23 06:48:56;;;;;;;3.33;0.40;;;5.60;99.90;;;;;;4979524;28;20026;-86
2024/02/23 06:51:21;;;;;;;2.97;0.50;;;5.60;99.90;;;;;;4978625;28;20121;-86
2024/02/23 06:53:47;;;;;;;7.50;0.50;;;5.70;99.90;;;;;;4978528;28;20478;-86
2024/02/23 06:56:13;;;;;;;2.97;0.43;;;5.70;99.90;;;;;;4972829;28;20042;-86
2024/02/23 06:58:39;;;;;;;6.13;0.50;;;5.70;99.90;;;;;;4978172;28;20037;-86
2024/02/23 07:01:06;;;;;;;7.82;0.73;;;5.80;99.90;;;;;;4987776;28;20049;-86
2024/02/23 07:03:32;;;;;;;9.07;0.50;;;5.80;99.90;;;;;;4998135;28;20058;-86
2024/02/23 07:05:58;;;;;;;4.63;0.57;;;5.80;99.90;;;;;;4985323;28;20109;-86
2024/02/23 07:08:24;;;;;;;6.18;0.40;;;5.80;99.90;;;;;;4978523;28;20068;-86
2024/02/23 07:10:49;;;;;;;7.40;0.45;;;5.80;99.90;;;;;;4978332;28;20038;-87
2024/02/23 07:13:17;;;;;;;6.38;0.50;;;5.80;99.90;;;;;;4972943;28;20043;-87
2024/02/23 07:15:42;;;;;;;4.25;0.50;;;5.80;99.90;;;;;;4969972;28;20487;-86
2024/02/23 07:18:12;;;;;;;6.57;0.40;;;5.90;99.90;;;;;;4989064;28;20034;-87
2024/02/23 07:20:38;;;;;;;7.00;0.63;;;5.90;99.90;;;;;;4978559;28;20026;-87
2024/02/23 07:23:05;;;;;;;6.00;0.55;;;5.90;99.90;;;;;;4977978;28;20037;-86
2024/02/23 07:25:30;;;;;;;9.20;0.60;;;5.90;99.90;;;;;;4978121;28;20108;-87
2024/02/23 07:27:56;;;;;;;7.72;0.50;;;6.00;99.90;;;;;;4977890;28;20022;-87
2024/02/23 07:30:22;;;;;;;8.20;0.50;;;6.00;99.90;;;;;;4995087;28;20033;-86
2024/02/23 07:32:48;;;;;;;6.03;0.68;;;6.00;99.90;;;;;;4978171;28;20493;-87
2024/02/23 07:35:13;;;;;;;4.68;0.52;;;6.00;99.90;;;;;;4977593;28;20073;-87
2024/02/23 07:37:39;;;;;;;10.48;0.85;;;6.10;99.90;;;;;;4977931;28;20022;-87
2024/02/23 07:40:05;;;;;;;6.80;0.47;;;6.10;99.90;;;;;;4988002;28;20034;-87
2024/02/23 07:42:37;;;;;;;6.70;0.50;;;6.10;99.90;;;;;;4985133;28;20044;-85
2024/02/23 07:45:04;;;;;;;6.55;0.80;;;6.20;99.90;;;;;;4987730;28;20102;-85
2024/02/23 07:47:33;;;;;;;4.68;0.60;;;6.20;99.90;;;;;;4977025;28;20037;-84
2024/02/23 07:49:59;;;;;;;11.85;0.47;;;6.20;99.90;;;;;;4975207;28;20054;-85
2024/02/23 07:52:25;;;;;;;8.38;1.02;;;6.20;99.90;;;;;;4994863;28;20073;-86
2024/02/23 07:54:52;;;;;;;6.35;0.50;;;6.30;99.90;;;;;;4991515;28;20045;-86
2024/02/23 07:57:18;;;;;;;7.47;0.40;;;6.30;99.90;;;;;;4992737;28;20568;-86
2024/02/23 07:59:44;;;;;;;4.38;0.30;;;6.30;99.90;;;;;;4974625;28;20022;-85
2024/02/23 08:02:10;;;;;;;9.10;0.70;;;6.40;99.90;;;;;;4990411;28;20030;-86
2024/02/23 08:04:36;;;;;;;6.18;0.40;;;6.40;99.90;;;;;;4980174;28;20041;-86
2024/02/23 08:07:01;;;;;;;2.97;0.30;;;6.50;99.90;;;;;;4976119;28;20026;-86
2024/02/23 08:09:27;;;;;;;7.68;0.20;;;6.50;99.90;;;;;;4977021;28;20026;-86
2024/02/23 08:11:53;;;;;;;5.70;0.30;;;6.50;99.90;;;;;;4994671;28;20114;-86
2024/02/23 08:14:18;;;;;;;8.23;0.32;;;6.50;99.90;;;;;;4988604;28;20062;-86
2024/02/23 08:16:44;;;;;;;5.43;0.40;;;6.50;99.90;;;;;;4994437;28;20101;-86
2024/02/23 08:19:09;;;;;;;7.05;0.50;;;6.50;99.90;;;;;;4976867;28;20124;-86
2024/02/23 08:21:36;;;;;;;3.33;0.25;;;6.50;99.90;;;;;;4976998;28;20029;-86
2024/02/23 08:24:02;;;;;;;4.90;0.50;;;6.50;99.90;;;;;;4976345;28;20383;-86
2024/02/23 08:26:28;;;;;;;5.50;0.50;;;6.50;99.90;;;;;;4976880;28;20525;-86
2024/02/23 08:28:53;;;;;;;5.00;0.40;;;6.50;99.90;;;;;;4993624;28;20031;-86
2024/02/23 08:31:19;;;;;;;3.45;0.30;;;6.50;99.90;;;;;;4976793;28;20486;-86
2024/02/23 08:33:45;;;;;;;5.00;0.43;;;6.60;99.90;;;;;;4976890;28;20037;-87
2024/02/23 08:36:10;;;;;;;6.60;0.30;;;6.70;99.90;;;;;;4976048;28;20158;-86
2024/02/23 08:38:36;;;;;;;3.78;0.38;;;6.90;99.90;;;;;;4977003;28;20022;-85
2024/02/23 08:41:03;;;;;;;6.90;0.30;;;7.00;99.90;;;;;;4976806;28;20027;-86
2024/02/23 08:43:28;;;;;;;7.20;0.57;;;7.10;99.90;;;;;;4976455;28;20114;-86
2024/02/23 08:45:54;;;;;;;6.05;0.40;;;7.10;99.90;;;;;;4993755;28;20113;-85
2024/02/23 08:48:19;;;;;;;3.83;0.30;;;7.10;99.90;;;;;;4994375;28;20030;-86
2024/02/23 08:50:45;;;;;;;6.85;0.30;;;7.10;99.90;;;;;;4993878;28;20026;-86
2024/02/23 08:53:11;;;;;;;4.88;1.58;;;7.20;99.90;;;;;;4976112;28;20042;-86
2024/02/23 08:55:36;;;;;;;4.78;0.73;;;7.20;99.90;;;;;;4976553;28;20328;-86
2024/02/23 08:58:02;;;;;;;5.65;0.30;;;7.20;99.90;;;;;;4976132;28;20038;-85
2024/02/23 09:00:28;;;;;;;3.83;0.30;;;7.20;99.90;;;;;;4974338;28;20122;-86
2024/02/23 09:02:54;;;;;;;6.68;0.40;;;7.20;99.90;;;;;;4972808;28;20023;-87
2024/02/23 09:05:20;;;;;;;6.07;0.40;;;7.10;99.90;;;;;;4973250;28;20030;-86
2024/02/23 09:07:46;;;;;;;5.28;0.30;;;7.10;99.90;;;;;;4993597;28;20610;-87
2024/02/23 09:10:12;;;;;;;4.68;0.30;;;7.10;99.90;;;;;;4974606;28;20026;-86
2024/02/23 09:12:38;;;;;;;4.22;0.35;;;7.10;99.90;;;;;;4988460;28;20089;-87
2024/02/23 09:15:05;;;;;;;5.55;0.52;;;7.10;99.90;;;;;;4969225;28;20041;-86
2024/02/23 09:17:30;;;;;;;15.57;0.65;;;7.10;99.90;;;;;;4963680;28;20030;-86
2024/02/23 09:19:56;;;;;;;5.82;0.45;;;7.10;99.90;;;;;;4990971;28;20029;-86
2024/02/23 09:22:22;;;;;;;4.97;0.60;;;7.10;99.90;;;;;;4972558;28;20061;-86
2024/02/23 09:24:48;;;;;;;3.33;0.98;;;7.00;99.90;;;;;;4962085;28;20114;-86
2024/02/23 09:27:14;;;;;;;3.95;0.30;;;7.10;99.90;;;;;;4975601;28;20129;-86
2024/02/23 09:29:44;;;;;;;2.75;0.30;;;7.10;99.90;;;;;;4973998;28;20026;-86
2024/02/23 09:32:09;;;;;;;7.75;0.35;;;7.10;99.90;;;;;;4976052;28;20034;-86
2024/02/23 09:34:35;;;;;;;4.35;0.28;;;7.10;99.90;;;;;;4975967;28;20391;-86
2024/02/23 09:37:00;;;;;;;3.78;0.50;;;7.10;99.90;;;;;;4987090;28;20030;-85
2024/02/23 09:39:29;;;;;;;1.98;0.35;;;7.20;99.90;;;;;;4998518;28;20041;-85
2024/02/23 09:41:56;;;;;;;8.35;1.40;;;7.20;99.90;;;;;;4980223;28;20038;-85
2024/02/23 09:44:22;;;;;;;4.88;0.40;;;7.30;99.90;;;;;;4981440;28;20026;-86
2024/02/23 09:46:48;;;;;;;5.18;0.50;;;7.30;99.90;;;;;;4981583;28;20030;-86
2024/02/23 09:49:18;;;;;;;5.00;0.40;;;7.40;99.90;;;;;;4997918;28;20030;-86
2024/02/23 09:51:44;;;;;;;6.88;0.40;;;7.40;99.90;;;;;;4961191;28;20042;-86
2024/02/23 09:54:10;;;;;;;8.77;0.50;;;7.40;99.90;;;;;;4985621;28;20026;-86
2024/02/23 09:56:37;;;;;;;7.93;0.47;;;7.50;99.90;;;;;;4997279;28;20104;-86
2024/02/23 09:59:04;;;;;;;5.22;0.38;;;7.50;99.90;;;;;;4979319;28;20089;-85
2024/02/23 10:01:31;;;;;;;3.60;0.50;;;7.60;99.90;;;;;;4984596;28;20390;-86
2024/02/23 10:03:58;;;;;;;7.55;0.50;;;7.70;99.90;;;;;;4979141;28;20073;-86
2024/02/23 10:06:24;;;;;;;3.75;0.20;;;7.60;99.90;;;;;;4996329;28;20034;-86
2024/02/23 10:08:50;;;;;;;3.20;0.47;;;7.50;99.90;;;;;;4972428;28;20479;-85
2024/02/23 10:11:22;;;;;;;4.22;0.40;;;7.50;99.90;;;;;;4976293;28;20030;-85
2024/02/23 10:13:54;;;;;;;2.50;0.20;;;7.40;99.90;;;;;;4979066;28;20033;-85
2024/02/23 10:16:21;;;;;;;4.80;0.30;;;7.40;99.90;;;;;;4987799;28;20031;-86
2024/02/23 10:18:50;;;;;;;3.70;0.20;;;7.30;99.90;;;;;;4983103;28;20026;-86
2024/02/23 10:21:16;;;;;;;4.88;0.32;;;7.40;99.90;;;;;;4978361;28;20026;-86
2024/02/23 10:23:44;;;;;;;3.97;0.30;;;7.30;99.90;;;;;;4986372;28;20041;-86
2024/02/23 10:26:10;;;;;;;6.05;0.40;;;7.30;99.90;;;;;;5016228;28;20683;-86
2024/02/23 10:28:38;;;;;;;2.55;0.20;;;7.30;99.90;;;;;;4978666;28;20026;-86
2024/02/23 10:31:05;;;;;;;2.72;0.30;;;7.30;99.90;;;;;;4981879;28;20501;-86
2024/02/23 10:33:31;;;;;;;2.85;0.30;;;7.30;99.90;;;;;;4979036;28;20038;-86
2024/02/23 10:35:59;;;;;;;1.77;0.20;;;7.40;99.90;;;;;;4978787;28;20023;-86
2024/02/23 10:38:26;;;;;;;4.28;0.30;;;7.50;99.90;;;;;;4978567;28;20039;-86
2024/02/23 10:40:55;;;;;;;3.28;0.22;;;7.70;99.90;;;;;;4978711;28;20105;-86
2024/02/23 10:43:29;;;;;;;2.08;0.30;;;7.70;99.90;;;;;;4996154;28;20100;-86
2024/02/23 10:45:57;;;;;;;3.90;0.40;;;7.70;99.90;;;;;;4980193;28;20026;-86
2024/02/23 10:48:24;;;;;;;2.20;0.40;;;7.80;99.90;;;;;;4975292;28;20418;-86
2024/02/23 10:50:50;;;;;;;4.43;0.70;;;7.70;99.90;;;;;;4976044;28;20026;-87
2024/02/23 10:53:19;;;;;;;2.95;0.30;;;7.70;99.90;;;;;;4986192;28;20038;-87
2024/02/23 10:55:45;;;;;;;2.88;0.22;;;7.70;99.90;;;;;;4978800;28;20030;-87
2024/02/23 10:58:13;;;;;;;3.78;0.50;;;7.70;99.90;;;;;;4978526;28;20069;-85
2024/02/23 11:00:39;;;;;;;4.95;0.28;;;7.60;99.90;;;;;;4985208;28;20073;-87
2024/02/23 11:03:06;;;;;;;1.75;0.25;;;7.60;99.90;;;;;;4991422;28;20485;-86
2024/02/23 11:05:33;;;;;;;2.08;0.30;;;7.60;99.90;;;;;;4987820;28;20437;-86
2024/02/23 11:07:59;;;;;;;4.00;0.40;;;7.60;99.90;;;;;;4978050;28;20027;-86
2024/02/23 11:10:25;;;;;;;2.25;0.13;;;7.60;99.90;;;;;;4978383;28;20034;-86
2024/02/23 11:12:59;;;;;;;2.38;0.20;;;7.70;99.90;;;;;;4975396;28;20126;-85
2024/02/23 11:15:28;;;;;;;1.95;0.20;;;7.80;99.90;;;;;;4992699;28;20022;-85
2024/02/23 11:17:55;;;;;;;2.30;0.15;;;7.90;99.90;;;;;;4976244;28;20026;-86
2024/02/23 11:20:25;;;;;;;4.72;0.40;;;8.00;99.90;;;;;;4978031;28;20065;-86
2024/02/23 11:22:55;;;;;;;2.42;0.30;;;7.90;99.90;;;;;;4978195;28;20117;-86
2024/02/23 11:25:26;;;;;;;1.92;0.20;;;8.00;99.90;;;;;;4981808;28;20042;-86
2024/02/23 11:27:52;;;;;;;5.25;0.75;;;8.00;99.90;;;;;;4989106;28;20081;-86
2024/02/23 11:30:18;;;;;;;4.18;0.40;;;8.00;99.90;;;;;;4975796;28;20022;-86
2024/02/23 11:32:51;;;;;;;5.40;0.30;;;8.10;99.90;;;;;;4977751;28;20061;-86
2024/02/23 11:35:21;;;;;;;2.83;0.40;;;8.10;99.90;;;;;;4976333;28;20146;-86
2024/02/23 11:38:02;;;;;;;3.70;0.60;;;8.20;99.90;;;;;;4976274;28;20026;-86
2024/02/23 11:40:28;;;;;;;4.72;0.30;;;8.30;99.90;;;;;;4975084;28;20109;-86
2024/02/23 11:42:57;;;;;;;3.40;0.57;;;8.40;99.90;;;;;;4977449;28;20037;-85
2024/02/23 11:45:24;;;;;;;3.58;0.25;;;8.50;99.90;;;;;;4977490;28;20034;-86
2024/02/23 11:47:50;;;;;;;5.20;0.45;;;8.50;99.90;;;;;;4977137;28;20391;-86
2024/02/23 11:50:19;;;;;;;3.63;1.58;;;8.40;99.90;;;;;;4993701;28;20026;-85
2024/02/23 11:52:45;;;;;;;2.88;0.30;;;8.40;99.90;;;;;;4994404;28;20093;-85
2024/02/23 11:55:11;;;;;;;2.25;0.40;;;8.30;99.90;;;;;;4994548;28;20031;-85
2024/02/23 11:57:38;;;;;;;3.08;0.30;;;8.30;99.90;;;;;;4976820;28;20086;-86
2024/02/23 12:00:06;;;;;;;2.42;0.30;;;8.30;99.90;;;;;;4973009;28;20156;-85
2024/02/23 12:02:34;;;;;;;4.13;0.30;;;8.30;99.90;;;;;;4979185;28;20022;-86
2024/02/23 12:05:00;;;;;;;3.92;0.40;;;8.20;99.90;;;;;;4978139;28;20018;-86
2024/02/23 12:07:28;;;;;;;4.05;0.40;;;8.20;99.90;;;;;;4984694;28;20026;-86
2024/02/23 12:09:53;;;;;;;2.92;0.20;;;8.20;99.90;;;;;;4979822;28;20033;-86
2024/02/23 12:12:19;;;;;;;4.07;0.30;;;8.20;99.90;;;;;;4994984;28;20038;-86
2024/02/23 12:14:45;;;;;;;4.65;0.60;;;8.20;99.90;;;;;;4990349;28;20056;-86
2024/02/23 12:17:10;;;;;;;3.50;0.35;;;8.10;99.90;;;;;;4993460;28;20040;-86
2024/02/23 12:19:40;;;;;;;4.40;0.40;;;8.10;99.90;;;;;;4982474;28;20026;-86
2024/02/23 12:22:05;;;;;;;3.95;0.40;;;8.20;99.90;;;;;;4977724;28;20125;-85
2024/02/23 12:24:31;;;;;;;3.78;0.40;;;8.20;99.90;;;;;;4977258;28;20503;-86
2024/02/23 12:26:57;;;;;;;4.78;0.50;;;8.20;99.90;;;;;;4978399;28;20037;-85
2024/02/23 12:29:23;;;;;;;2.83;0.32;;;8.20;99.90;;;;;;4994656;28;20022;-86
2024/02/23 12:31:49;;;;;;;4.57;0.50;;;8.30;99.90;;;;;;4977392;28;20411;-86
2024/02/23 12:34:15;;;;;;;4.43;0.30;;;8.30;99.90;;;;;;4997451;28;20037;-86
2024/02/23 12:36:41;;;;;;;4.97;0.40;;;8.30;99.90;;;;;;4981128;28;20033;-86
2024/02/23 12:39:06;;;;;;;5.50;0.40;;;8.40;99.90;;;;;;4977640;28;20052;-87
2024/02/23 12:41:32;;;;;;;3.38;0.95;;;8.50;99.90;;;;;;4983705;28;20421;-86
2024/02/23 12:43:58;;;;;;;5.85;0.40;;;8.50;99.90;;;;;;4976612;28;20030;-87
2024/02/23 12:46:24;;;;;;;4.68;0.40;;;8.50;99.90;;;;;;4995849;28;20417;-86
2024/02/23 12:48:50;;;;;;;5.70;0.38;;;8.50;99.90;;;;;;4994927;28;20029;-86
2024/02/23 12:51:16;;;;;;;4.68;0.30;;;8.40;99.90;;;;;;4976206;28;20057;-86
2024/02/23 12:53:43;;;;;;;2.70;0.30;;;8.40;99.90;;;;;;4993741;28;20030;-86